Terminal Aerodrome Forecast
Issued by NWS

Home | Current Version | Previous Version | Text Only | Print | Product List | Glossary On
Versions: 1 2 3 4 5 6 7 8 9 10 11 12 13 14
363
FTUS43 KEAX 202323
TAFMKC
TAF
KMKC 202323Z 2100/2124 20015G22KT P6SM BKN200
     FM210100 21011KT P6SM SCT200
     FM211300 34012KT P6SM BKN120=

USA.gov is the U.S. government's official web portal to all federal, state and local government web resources and services.